createdAt,value
2022-11-17T00:01:21.478Z,9.26
2022-11-17T00:03:49.797Z,9.38
2022-11-17T00:06:20.376Z,9.42
2022-11-17T00:08:47.679Z,9.51
2022-11-17T00:11:14.939Z,9.46
2022-11-17T00:14:00.231Z,9.46
2022-11-17T00:16:26.899Z,9.40
2022-11-17T00:19:12.455Z,9.47
2022-11-17T00:21:38.966Z,9.49
2022-11-17T00:24:05.817Z,9.49
2022-11-17T00:26:34.568Z,9.53
2022-11-17T00:29:04.619Z,9.55
2022-11-17T00:31:51.327Z,9.54
2022-11-17T00:34:22.735Z,9.54
2022-11-17T00:36:54.141Z,9.59
2022-11-17T00:39:22.035Z,9.60
2022-11-17T00:41:48.792Z,9.60
2022-11-17T00:44:16.050Z,9.68
2022-11-17T00:46:43.170Z,9.62
2022-11-17T00:49:11.127Z,9.62
2022-11-17T00:51:38.443Z,9.69
2022-11-17T00:54:07.045Z,9.64
2022-11-17T00:56:33.831Z,9.72
2022-11-17T00:59:00.648Z,9.76
2022-11-17T01:01:27.448Z,9.79
2022-11-17T01:04:03.501Z,9.80
2022-11-17T01:06:33.159Z,9.80
2022-11-17T01:09:05.593Z,9.88
2022-11-17T01:11:32.418Z,10.00
2022-11-17T01:14:00.794Z,10.02
2022-11-17T01:16:28.384Z,10.00
2022-11-17T01:18:54.982Z,9.99
2022-11-17T01:21:26.127Z,10.00
2022-11-17T01:23:55.692Z,10.04
2022-11-17T01:26:24.975Z,10.10
2022-11-17T01:28:52.333Z,10.22
2022-11-17T01:31:24.514Z,10.22
2022-11-17T01:33:51.924Z,10.25
2022-11-17T01:36:21.781Z,10.29
2022-11-17T01:38:48.319Z,10.36
2022-11-17T01:41:23.516Z,10.25
2022-11-17T01:44:19.641Z,10.33
2022-11-17T01:46:46.378Z,10.35
2022-11-17T01:49:14.907Z,10.29
2022-11-17T01:51:52.659Z,10.25
2022-11-17T01:54:23.166Z,10.31
2022-11-17T01:56:56.030Z,10.23
2022-11-17T01:59:33.063Z,10.25
2022-11-17T02:01:59.650Z,10.20
2022-11-17T02:04:30.793Z,10.16
2022-11-17T02:07:03.153Z,10.12
2022-11-17T02:09:29.636Z,10.06
2022-11-17T02:11:58.690Z,10.11
2022-11-17T02:14:25.391Z,10.02
2022-11-17T02:16:52.051Z,10.00
2022-11-17T02:19:21.219Z,9.88
2022-11-17T02:21:53.725Z,9.98
2022-11-17T02:24:38.142Z,9.99
2022-11-17T02:27:38.450Z,9.92
2022-11-17T02:30:13.368Z,9.80
2022-11-17T02:33:03.320Z,9.80
2022-11-17T02:35:47.626Z,9.89
2022-11-17T02:38:32.050Z,9.81
2022-11-17T02:41:12.593Z,9.87
2022-11-17T02:44:06.405Z,9.86
2022-11-17T02:46:46.248Z,9.86
2022-11-17T02:49:20.811Z,9.87
2022-11-17T02:51:51.738Z,9.82
2022-11-17T02:54:20.412Z,9.79
2022-11-17T02:56:46.945Z,9.83
2022-11-17T02:59:17.532Z,9.89
2022-11-17T03:01:55.857Z,9.94
2022-11-17T03:04:37.999Z,9.99
2022-11-17T03:07:16.813Z,9.91
2022-11-17T03:10:11.066Z,10.05
2022-11-17T03:12:47.859Z,10.05
2022-11-17T03:15:25.350Z,10.04
2022-11-17T03:18:29.245Z,10.03
2022-11-17T03:21:21.989Z,10.02
2022-11-17T03:23:59.787Z,10.01
2022-11-17T03:26:33.303Z,10.01
2022-11-17T03:29:01.969Z,10.08
2022-11-17T03:31:29.670Z,9.95
2022-11-17T03:33:58.071Z,10.03
2022-11-17T03:36:32.512Z,9.98
2022-11-17T03:39:23.864Z,10.06
2022-11-17T03:41:55.180Z,10.00
2022-11-17T03:44:24.928Z,10.00
2022-11-17T03:46:54.463Z,10.00
2022-11-17T03:49:59.657Z,10.04
2022-11-17T03:52:29.651Z,10.00
2022-11-17T03:54:56.795Z,10.00
2022-11-17T03:57:34.996Z,10.02
2022-11-17T04:00:14.644Z,10.03
2022-11-17T04:02:46.951Z,10.02
2022-11-17T04:05:16.328Z,10.00
2022-11-17T04:07:44.849Z,10.04
2022-11-17T04:10:15.975Z,10.03
2022-11-17T04:13:00.828Z,10.03
2022-11-17T04:15:46.320Z,10.02
2022-11-17T04:18:13.783Z,10.00
2022-11-17T04:20:40.998Z,9.99
2022-11-17T04:23:16.860Z,9.98
2022-11-17T04:26:04.671Z,10.06
2022-11-17T04:28:38.960Z,10.05
2022-11-17T04:31:23.266Z,9.99
2022-11-17T04:34:04.133Z,10.10
2022-11-17T04:36:34.643Z,9.99
2022-11-17T04:39:01.222Z,9.99
2022-11-17T04:41:48.359Z,10.04
2022-11-17T04:44:16.996Z,10.00
2022-11-17T04:46:44.649Z,9.97
2022-11-17T04:49:11.531Z,10.06
2022-11-17T04:51:38.707Z,10.00
2022-11-17T04:54:06.990Z,10.04
2022-11-17T04:56:33.520Z,9.98
2022-11-17T04:59:00.092Z,10.04
2022-11-17T05:01:28.000Z,10.05
2022-11-17T05:04:00.415Z,9.97
2022-11-17T05:06:33.388Z,10.05
2022-11-17T05:09:02.173Z,10.03
2022-11-17T05:11:48.446Z,10.14
2022-11-17T05:14:17.652Z,9.97
2022-11-17T05:17:08.968Z,10.05
2022-11-17T05:19:38.103Z,10.02
2022-11-17T05:22:25.470Z,10.06
2022-11-17T05:24:52.620Z,10.06
2022-11-17T05:27:20.083Z,10.07
2022-11-17T05:29:46.616Z,10.06
2022-11-17T05:32:13.123Z,10.04
2022-11-17T05:34:39.598Z,10.04
2022-11-17T05:37:06.483Z,10.05
2022-11-17T05:39:32.991Z,10.02
2022-11-17T05:41:59.481Z,9.97
2022-11-17T05:44:25.988Z,10.00
2022-11-17T05:46:52.515Z,10.08
2022-11-17T05:49:19.027Z,9.94
2022-11-17T05:51:49.885Z,9.90
2022-11-17T05:54:18.878Z,9.90
2022-11-17T05:56:50.838Z,9.75
2022-11-17T05:59:17.266Z,9.74
2022-11-17T06:01:53.577Z,9.69
2022-11-17T06:04:20.692Z,9.63
2022-11-17T06:06:47.923Z,9.56
2022-11-17T06:09:15.812Z,9.51
2022-11-17T06:11:42.457Z,9.42
2022-11-17T06:14:08.976Z,9.43
2022-11-17T06:16:43.013Z,9.30
2022-11-17T06:19:15.720Z,9.35
2022-11-17T06:22:09.786Z,9.36
2022-11-17T06:24:28.921Z,9.29
2022-11-17T06:26:55.489Z,9.27
2022-11-17T06:29:22.020Z,9.22
2022-11-17T06:31:48.762Z,9.18
2022-11-17T06:34:15.371Z,9.13
2022-11-17T06:36:41.963Z,9.10
2022-11-17T06:39:08.508Z,9.07
2022-11-17T06:41:36.711Z,9.06
2022-11-17T06:44:03.243Z,8.99
2022-11-17T06:46:38.015Z,8.94
2022-11-17T06:49:08.339Z,8.96
2022-11-17T06:51:37.258Z,8.94
2022-11-17T06:54:08.609Z,8.95
2022-11-17T06:56:35.332Z,8.87
2022-11-17T06:59:01.930Z,8.99
2022-11-17T07:01:28.468Z,8.97
2022-11-17T07:03:55.061Z,8.94
2022-11-17T07:06:22.348Z,8.99
2022-11-17T07:08:49.064Z,8.97
2022-11-17T07:11:16.693Z,8.97
2022-11-17T07:13:43.518Z,9.05
2022-11-17T07:16:17.429Z,8.92
2022-11-17T07:18:46.873Z,8.98
2022-11-17T07:21:14.761Z,8.99
2022-11-17T07:23:43.005Z,8.99
2022-11-17T07:26:09.678Z,9.05
2022-11-17T07:28:36.580Z,9.01
2022-11-17T07:31:08.051Z,9.00
2022-11-17T07:33:35.374Z,8.98
2022-11-17T07:36:04.605Z,9.02
2022-11-17T07:38:33.011Z,8.96
2022-11-17T07:41:00.861Z,9.03
2022-11-17T07:43:27.730Z,9.02
2022-11-17T07:45:54.627Z,9.02
2022-11-17T07:48:21.186Z,8.98
2022-11-17T07:50:48.363Z,9.00
2022-11-17T07:53:15.477Z,9.06
2022-11-17T07:55:42.015Z,8.98
2022-11-17T07:58:08.609Z,8.91
2022-11-17T08:00:35.212Z,8.89
2022-11-17T08:03:04.229Z,8.87
2022-11-17T08:05:32.334Z,8.89
2022-11-17T08:08:00.316Z,8.88
2022-11-17T08:10:31.001Z,8.87
2022-11-17T08:13:00.780Z,8.86
2022-11-17T08:15:28.455Z,8.85
2022-11-17T08:17:56.728Z,8.85
2022-11-17T08:20:24.852Z,8.90
2022-11-17T08:22:52.850Z,8.81
2022-11-17T08:25:20.762Z,8.79
2022-11-17T08:27:51.956Z,8.71
2022-11-17T08:30:20.616Z,8.79
2022-11-17T08:32:52.090Z,8.67
2022-11-17T08:35:21.270Z,8.79
2022-11-17T08:37:48.008Z,8.75
2022-11-17T08:40:15.470Z,8.74
2022-11-17T08:42:42.099Z,8.78
2022-11-17T08:45:09.215Z,8.77
2022-11-17T08:47:36.217Z,8.74
2022-11-17T08:50:03.398Z,8.78
2022-11-17T08:52:29.982Z,8.78
2022-11-17T08:54:56.551Z,8.70
2022-11-17T08:57:23.264Z,8.66
2022-11-17T08:59:50.198Z,8.66
2022-11-17T09:02:17.435Z,8.63
2022-11-17T09:04:46.145Z,8.63
2022-11-17T09:07:12.849Z,8.62
2022-11-17T09:09:39.509Z,8.68
2022-11-17T09:12:06.589Z,8.66
2022-11-17T09:14:33.298Z,8.78
2022-11-17T09:16:59.933Z,8.71
2022-11-17T09:19:26.903Z,8.85
2022-11-17T09:21:53.490Z,8.81
2022-11-17T09:24:20.075Z,8.79
2022-11-17T09:26:46.842Z,8.80
2022-11-17T09:29:13.427Z,8.79
2022-11-17T09:31:40.089Z,8.75
2022-11-17T09:34:06.897Z,8.82
2022-11-17T09:36:33.898Z,8.91
2022-11-17T09:39:01.012Z,8.91
2022-11-17T09:41:32.559Z,8.89
2022-11-17T09:44:05.234Z,9.00
2022-11-17T09:46:37.719Z,9.08
2022-11-17T09:49:30.448Z,9.12
2022-11-17T09:52:01.044Z,9.21
2022-11-17T09:54:39.015Z,9.22
2022-11-17T09:57:13.004Z,9.22
2022-11-17T09:59:39.705Z,9.34
2022-11-17T10:02:10.679Z,9.39
2022-11-17T10:04:37.321Z,9.42
2022-11-17T10:07:04.201Z,9.40
2022-11-17T10:09:43.271Z,9.33
2022-11-17T10:12:22.140Z,9.43
2022-11-17T10:14:49.523Z,9.45
2022-11-17T10:17:16.069Z,9.42
2022-11-17T10:19:45.120Z,9.38
2022-11-17T10:22:34.672Z,9.40
2022-11-17T10:25:01.204Z,9.43
2022-11-17T10:27:32.099Z,9.51
2022-11-17T10:30:23.559Z,9.48
2022-11-17T10:32:58.801Z,9.44
2022-11-17T10:35:27.440Z,9.52
2022-11-17T10:38:29.055Z,9.68
2022-11-17T10:40:59.158Z,9.71
2022-11-17T10:43:35.492Z,9.50
2022-11-17T10:46:12.718Z,9.41
2022-11-17T10:48:53.712Z,9.26
2022-11-17T10:51:20.188Z,9.32
2022-11-17T10:54:16.074Z,9.29
2022-11-17T10:56:47.610Z,9.40
2022-11-17T10:59:33.376Z,9.44
2022-11-17T11:02:35.774Z,9.53
2022-11-17T11:05:19.057Z,9.58
2022-11-17T11:07:45.744Z,9.69
2022-11-17T11:10:18.300Z,9.71
2022-11-17T11:12:54.172Z,9.75
2022-11-17T11:15:24.241Z,9.75
2022-11-17T11:17:51.572Z,9.78
2022-11-17T11:20:21.352Z,9.80
2022-11-17T11:23:18.230Z,9.84
2022-11-17T11:25:52.386Z,9.77
2022-11-17T11:28:40.048Z,9.90
2022-11-17T11:31:13.925Z,9.90
2022-11-17T11:34:15.438Z,9.91
2022-11-17T11:36:53.658Z,9.89
2022-11-17T11:39:40.924Z,9.92
2022-11-17T11:42:10.476Z,10.02
2022-11-17T11:44:46.074Z,10.02
2022-11-17T11:47:37.336Z,10.04
2022-11-17T11:50:15.726Z,10.01
2022-11-17T11:52:48.509Z,10.04
2022-11-17T11:55:36.409Z,10.06
2022-11-17T11:58:22.615Z,10.05
2022-11-17T12:00:53.439Z,9.98
2022-11-17T12:03:34.101Z,9.97
2022-11-17T12:06:40.127Z,9.85
2022-11-17T12:09:34.283Z,9.78
2022-11-17T12:12:07.956Z,9.72
2022-11-17T12:14:37.108Z,9.68
2022-11-17T12:17:18.651Z,9.84
2022-11-17T12:19:59.649Z,9.93
2022-11-17T12:22:29.222Z,10.02
2022-11-17T12:25:00.063Z,10.00
2022-11-17T12:27:35.840Z,10.08
2022-11-17T12:30:04.986Z,10.14
2022-11-17T12:32:49.708Z,10.12
2022-11-17T12:35:29.970Z,10.19
2022-11-17T12:38:16.848Z,10.22
2022-11-17T12:40:51.519Z,10.31
2022-11-17T12:43:28.096Z,10.42
2022-11-17T12:46:04.746Z,10.41
2022-11-17T12:48:39.953Z,10.35
2022-11-17T12:51:21.909Z,10.44
2022-11-17T12:54:03.553Z,10.44
2022-11-17T12:56:37.783Z,10.49
2022-11-17T12:59:17.475Z,10.43
2022-11-17T13:02:04.096Z,10.48
2022-11-17T13:04:37.182Z,10.43
2022-11-17T13:07:08.717Z,10.43
2022-11-17T13:09:36.637Z,10.60
2022-11-17T13:12:08.198Z,10.57
2022-11-17T13:14:36.683Z,10.66
2022-11-17T13:17:03.934Z,10.63
2022-11-17T13:19:32.956Z,10.73
2022-11-17T13:22:02.015Z,10.71
2022-11-17T13:24:31.313Z,10.85
2022-11-17T13:27:02.663Z,10.81
2022-11-17T13:29:29.531Z,10.79
2022-11-17T13:32:12.747Z,10.88
2022-11-17T13:34:48.241Z,10.90
2022-11-17T13:37:17.733Z,10.93
2022-11-17T13:39:59.062Z,10.90
2022-11-17T13:42:29.553Z,10.97
2022-11-17T13:44:58.852Z,10.94
2022-11-17T13:47:45.629Z,10.97
2022-11-17T13:50:27.405Z,10.92
2022-11-17T13:53:06.327Z,10.97
2022-11-17T13:55:34.220Z,10.99
2022-11-17T13:58:06.952Z,10.99
2022-11-17T14:00:34.118Z,10.87
2022-11-17T14:03:44.537Z,11.02
2022-11-17T14:06:13.436Z,10.87
2022-11-17T14:08:42.672Z,11.02
2022-11-17T14:11:11.953Z,10.92
2022-11-17T14:13:42.382Z,10.95
2022-11-17T14:16:32.918Z,10.89
2022-11-17T14:19:25.211Z,10.86
2022-11-17T14:22:08.901Z,10.95
2022-11-17T14:24:36.501Z,10.86
2022-11-17T14:27:12.069Z,10.84
2022-11-17T14:29:39.047Z,10.86
2022-11-17T14:32:05.717Z,10.85
2022-11-17T14:34:32.387Z,10.79
2022-11-17T14:36:59.031Z,10.81
2022-11-17T14:39:25.569Z,10.83
2022-11-17T14:41:52.169Z,10.82
2022-11-17T14:44:18.801Z,10.83
2022-11-17T14:46:45.345Z,10.77
2022-11-17T14:49:11.976Z,10.77
2022-11-17T14:51:38.936Z,10.72
2022-11-17T14:54:05.698Z,10.69
2022-11-17T14:56:32.336Z,10.70
2022-11-17T14:58:59.679Z,10.74
2022-11-17T15:01:34.847Z,10.68
2022-11-17T15:04:20.651Z,10.68
2022-11-17T15:06:49.458Z,10.74
2022-11-17T15:09:16.509Z,10.65
2022-11-17T15:11:43.136Z,10.62
2022-11-17T15:14:10.908Z,10.68
2022-11-17T15:16:37.509Z,10.71
2022-11-17T15:19:04.199Z,10.74
2022-11-17T15:21:30.721Z,10.69
2022-11-17T15:23:57.322Z,10.71
2022-11-17T15:26:23.965Z,10.67
2022-11-17T15:28:50.681Z,10.82
2022-11-17T15:31:20.198Z,10.70
2022-11-17T15:33:47.887Z,10.76
2022-11-17T15:36:17.582Z,10.86
2022-11-17T15:38:44.471Z,10.87
2022-11-17T15:41:12.809Z,10.83
2022-11-17T15:43:41.039Z,10.82
2022-11-17T15:46:10.228Z,10.66
2022-11-17T15:48:40.090Z,10.77
2022-11-17T15:51:10.526Z,10.70
2022-11-17T15:53:38.626Z,10.71
2022-11-17T15:56:07.804Z,10.80
2022-11-17T15:58:34.885Z,10.82
2022-11-17T16:01:29.153Z,10.69
2022-11-17T16:04:02.799Z,10.56
2022-11-17T16:06:30.534Z,10.72
2022-11-17T16:08:57.686Z,10.56
2022-11-17T16:11:26.888Z,10.65
2022-11-17T16:13:54.964Z,10.63
2022-11-17T16:16:22.127Z,10.62
2022-11-17T16:18:48.672Z,10.50
2022-11-17T16:21:16.507Z,10.47
2022-11-17T16:23:45.743Z,10.51
2022-11-17T16:26:14.517Z,10.44
2022-11-17T16:28:41.205Z,10.38
2022-11-17T16:31:22.443Z,10.38
2022-11-17T16:33:52.987Z,10.40
2022-11-17T16:36:21.943Z,10.28
2022-11-17T16:39:02.103Z,10.29
2022-11-17T16:41:32.143Z,10.26
2022-11-17T16:43:59.046Z,10.35
2022-11-17T16:46:31.201Z,10.25
2022-11-17T16:49:02.260Z,10.25
2022-11-17T16:51:29.156Z,10.25
2022-11-17T16:53:57.921Z,10.24
2022-11-17T16:56:24.810Z,10.17
2022-11-17T16:58:52.310Z,10.12
2022-11-17T17:01:21.488Z,10.10
2022-11-17T17:03:48.360Z,10.13
2022-11-17T17:06:16.999Z,10.09
2022-11-17T17:08:43.646Z,10.13
2022-11-17T17:11:13.198Z,10.03
2022-11-17T17:13:40.656Z,9.98
2022-11-17T17:16:10.196Z,10.04
2022-11-17T17:18:37.271Z,9.96
2022-11-17T17:21:04.352Z,9.98
2022-11-17T17:23:31.691Z,9.88
2022-11-17T17:26:09.802Z,9.96
2022-11-17T17:28:40.496Z,9.91
2022-11-17T17:31:08.253Z,9.89
2022-11-17T17:33:36.842Z,9.86
2022-11-17T17:36:08.953Z,9.82
2022-11-17T17:38:35.954Z,9.86
2022-11-17T17:41:09.812Z,9.81
2022-11-17T17:43:36.658Z,9.75
2022-11-17T17:46:12.821Z,9.78
2022-11-17T17:48:43.476Z,9.91
2022-11-17T17:51:14.989Z,9.86
2022-11-17T17:53:42.222Z,9.83
2022-11-17T17:56:11.793Z,9.80
2022-11-17T17:58:42.340Z,9.84
2022-11-17T18:01:17.606Z,9.75
2022-11-17T18:03:45.871Z,9.73
2022-11-17T18:06:13.739Z,9.70
2022-11-17T18:08:40.514Z,9.63
2022-11-17T18:11:09.968Z,9.60
2022-11-17T18:13:39.064Z,9.62
2022-11-17T18:16:08.087Z,9.62
2022-11-17T18:18:36.319Z,9.63
2022-11-17T18:21:06.018Z,9.52
2022-11-17T18:23:34.453Z,9.51
2022-11-17T18:26:34.395Z,9.48
2022-11-17T18:29:02.312Z,9.53
2022-11-17T18:31:31.079Z,9.50
2022-11-17T18:34:00.481Z,9.47
2022-11-17T18:36:28.409Z,9.41
2022-11-17T18:38:56.737Z,9.47
2022-11-17T18:41:23.753Z,9.48
2022-11-17T18:43:50.447Z,9.41
2022-11-17T18:46:19.606Z,9.43
2022-11-17T18:48:47.988Z,9.44
2022-11-17T18:51:20.824Z,9.34
2022-11-17T18:53:52.762Z,9.29
2022-11-17T18:56:22.608Z,9.36
2022-11-17T18:58:49.455Z,9.36
2022-11-17T19:01:21.715Z,9.38
2022-11-17T19:03:53.537Z,9.32
2022-11-17T19:06:22.040Z,9.30
2022-11-17T19:08:49.353Z,9.32
2022-11-17T19:11:17.189Z,9.33
2022-11-17T19:13:44.746Z,9.27
2022-11-17T19:16:15.467Z,9.25
2022-11-17T19:18:43.174Z,9.27
2022-11-17T19:21:21.749Z,9.26
2022-11-17T19:23:51.955Z,9.28
2022-11-17T19:26:20.580Z,9.17
2022-11-17T19:28:47.877Z,9.19
2022-11-17T19:31:17.328Z,9.14
2022-11-17T19:33:45.118Z,9.14
2022-11-17T19:36:16.856Z,9.08
2022-11-17T19:38:45.513Z,9.11
2022-11-17T19:41:14.293Z,9.08
2022-11-17T19:43:45.120Z,8.98
2022-11-17T19:46:14.783Z,9.02
2022-11-17T19:48:42.873Z,9.07
2022-11-17T19:51:13.746Z,8.94
2022-11-17T19:53:40.736Z,8.95
2022-11-17T19:56:07.787Z,8.99
2022-11-17T19:58:34.635Z,9.00
2022-11-17T20:01:18.252Z,8.92
2022-11-17T20:03:46.275Z,8.85
2022-11-17T20:06:15.230Z,8.91
2022-11-17T20:08:42.009Z,8.77
2022-11-17T20:11:12.497Z,8.85
2022-11-17T20:13:39.751Z,8.83
2022-11-17T20:16:12.381Z,8.82
2022-11-17T20:18:40.835Z,8.84
2022-11-17T20:21:08.337Z,8.85
2022-11-17T20:23:36.282Z,8.82
2022-11-17T20:26:08.226Z,8.76
2022-11-17T20:28:36.087Z,8.71
2022-11-17T20:31:10.883Z,8.77
2022-11-17T20:33:38.492Z,8.77
2022-11-17T20:36:06.724Z,8.73
2022-11-17T20:38:33.258Z,8.64
2022-11-17T20:41:00.720Z,8.65
2022-11-17T20:43:28.608Z,8.68
2022-11-17T20:45:56.552Z,8.77
2022-11-17T20:48:24.171Z,8.64
2022-11-17T20:51:00.684Z,8.62
2022-11-17T20:53:28.455Z,8.60
2022-11-17T20:55:56.552Z,8.65
2022-11-17T20:58:24.334Z,8.58
2022-11-17T21:00:51.250Z,8.63
2022-11-17T21:03:18.235Z,8.55
2022-11-17T21:05:57.056Z,8.50
2022-11-17T21:08:26.188Z,8.50
2022-11-17T21:10:56.855Z,8.49
2022-11-17T21:13:24.288Z,8.59
2022-11-17T21:16:20.068Z,8.54
2022-11-17T21:18:48.205Z,8.41
2022-11-17T21:21:15.544Z,8.43
2022-11-17T21:23:43.941Z,8.44
2022-11-17T21:26:19.719Z,8.39
2022-11-17T21:28:46.920Z,8.30
2022-11-17T21:31:18.966Z,8.31
2022-11-17T21:33:46.637Z,8.29
2022-11-17T21:36:17.530Z,8.20
2022-11-17T21:38:45.531Z,8.12
2022-11-17T21:41:22.650Z,8.10
2022-11-17T21:43:51.141Z,8.14
2022-11-17T21:46:20.193Z,8.24
2022-11-17T21:48:47.787Z,8.07
2022-11-17T21:51:20.757Z,7.99
2022-11-17T21:53:47.722Z,7.96
2022-11-17T21:56:14.499Z,7.94
2022-11-17T21:58:41.325Z,7.85
2022-11-17T22:01:13.709Z,7.86
2022-11-17T22:03:41.559Z,7.86
2022-11-17T22:06:13.908Z,7.80
2022-11-17T22:08:42.679Z,7.80
2022-11-17T22:11:11.816Z,7.79
2022-11-17T22:13:38.990Z,7.76
2022-11-17T22:16:12.203Z,7.78
2022-11-17T22:18:39.170Z,7.73
2022-11-17T22:21:06.950Z,7.75
2022-11-17T22:23:34.346Z,7.72
2022-11-17T22:26:05.633Z,7.72
2022-11-17T22:28:32.399Z,7.67
2022-11-17T22:30:59.469Z,7.67
2022-11-17T22:33:26.238Z,7.67
2022-11-17T22:35:52.873Z,7.68
2022-11-17T22:38:19.455Z,7.65
2022-11-17T22:40:46.037Z,7.59
2022-11-17T22:43:15.543Z,7.56
2022-11-17T22:45:42.636Z,7.47
2022-11-17T22:48:09.272Z,7.56
2022-11-17T22:50:36.204Z,7.47
2022-11-17T22:53:03.096Z,7.45
2022-11-17T22:55:30.187Z,7.50
2022-11-17T22:57:56.749Z,7.46
2022-11-17T23:00:23.462Z,7.44
2022-11-17T23:02:50.133Z,7.47
2022-11-17T23:05:16.969Z,7.49
2022-11-17T23:07:44.090Z,7.44
2022-11-17T23:10:11.447Z,7.50
2022-11-17T23:12:38.318Z,7.43
2022-11-17T23:15:06.134Z,7.41
2022-11-17T23:17:32.707Z,7.38
2022-11-17T23:19:59.588Z,7.45
2022-11-17T23:22:27.292Z,7.36
2022-11-17T23:24:53.866Z,7.33
2022-11-17T23:27:20.437Z,7.43
2022-11-17T23:29:46.996Z,7.42
2022-11-17T23:32:13.552Z,7.37
2022-11-17T23:34:40.247Z,7.41
2022-11-17T23:37:06.777Z,7.37
2022-11-17T23:39:33.491Z,7.39
2022-11-17T23:42:00.123Z,7.41
2022-11-17T23:44:26.617Z,7.39
2022-11-17T23:46:53.187Z,7.42
2022-11-17T23:49:19.981Z,7.44
2022-11-17T23:51:46.679Z,7.50
2022-11-17T23:54:13.539Z,7.47
2022-11-17T23:56:40.242Z,7.43
2022-11-17T23:59:08.108Z,7.44
